Time;durP1;ratioP1;P1;durP2;ratioP2;P2;SDS_P1;SDS_P2;PMS_P1;PMS_P2;Temp;Humidity;BMP_temperature;BMP_pressure;BME280_temperature;BME280_humidity;BME280_pressure;Samples;Min_cycle;Max_cycle;Signal;HPM_P1;HPM_P2
2022/08/07 00:00:52;;;;;;;23.27;19.00;;;;;;;21.84;100.00;96941.56;5080568;28;20079;-49
2022/08/07 00:03:22;;;;;;;26.53;18.53;;;;;;;21.87;100.00;96933.13;5079408;28;20082;-42
2022/08/07 00:05:52;;;;;;;21.85;17.90;;;;;;;21.82;100.00;96935.59;5081651;28;20156;-49
2022/08/07 00:08:22;;;;;;;23.63;16.50;;;;;;;21.60;100.00;96939.47;5079126;28;20126;-42
2022/08/07 00:10:52;;;;;;;19.77;16.73;;;;;;;21.85;100.00;96929.81;5080781;28;20064;-44
2022/08/07 00:13:25;;;;;;;18.30;15.70;;;;;;;21.94;100.00;96936.63;5082219;28;20063;-45
2022/08/07 00:15:54;;;;;;;19.65;15.90;;;;;;;21.78;100.00;96937.00;5076272;28;20131;-45
2022/08/07 00:18:28;;;;;;;20.37;16.00;;;;;;;21.55;100.00;96943.59;5083378;28;20078;-40
2022/08/07 00:20:57;;;;;;;18.45;15.52;;;;;;;21.85;100.00;96945.94;5080173;28;20098;-40
2022/08/07 00:23:31;;;;;;;19.42;14.77;;;;;;;21.52;100.00;96952.03;5085269;28;20103;-44
2022/08/07 00:26:02;;;;;;;17.13;14.43;;;;;;;21.75;100.00;96948.19;5082900;28;20589;-46
2022/08/07 00:28:46;;;;;;;18.13;13.63;;;;;;;21.59;100.00;96941.31;5084626;28;20048;-42
2022/08/07 00:31:24;;;;;;;16.70;13.77;;;;;;;21.46;100.00;96941.28;5080104;28;20090;-41
2022/08/07 00:34:08;;;;;;;16.80;13.63;;;;;;;21.47;100.00;96938.41;5084562;28;20084;-45
2022/08/07 00:36:38;;;;;;;16.35;13.77;;;;;;;21.41;100.00;96927.66;5085859;28;20068;-41
2022/08/07 00:39:12;;;;;;;14.80;11.63;;;;;;;21.48;100.00;96934.69;5078763;28;20087;-47
2022/08/07 00:41:53;;;;;;;15.73;11.80;;;;;;;21.16;100.00;96933.47;5082270;28;20091;-48
2022/08/07 00:44:32;;;;;;;14.27;11.15;;;;;;;21.24;100.00;96929.81;5083862;28;20076;-44
2022/08/07 00:47:01;;;;;;;14.88;11.05;;;;;;;21.51;100.00;96936.97;5084802;28;20497;-43
2022/08/07 00:49:29;;;;;;;13.50;10.35;;;;;;;21.22;100.00;96930.00;5075740;28;20568;-47
2022/08/07 00:52:17;;;;;;;13.95;10.48;;;;;;;21.31;100.00;96931.50;5077772;28;20083;-43
2022/08/07 00:54:47;;;;;;;12.47;9.43;;;;;;;21.33;100.00;96931.28;5081476;28;20111;-41
2022/08/07 00:57:23;;;;;;;12.82;9.13;;;;;;;21.27;100.00;96926.75;5079755;28;20074;-41
2022/08/07 00:59:53;;;;;;;10.85;8.70;;;;;;;21.14;100.00;96924.81;5082095;28;20071;-41
2022/08/07 01:02:23;;;;;;;10.27;8.35;;;;;;;21.02;100.00;96927.22;5080152;28;20447;-49
2022/08/07 01:04:56;;;;;;;10.13;7.90;;;;;;;20.99;100.00;96932.16;5078920;28;20062;-42
2022/08/07 01:07:26;;;;;;;9.32;7.50;;;;;;;21.11;100.00;96930.59;5077855;28;20064;-53
2022/08/07 01:09:57;;;;;;;9.18;7.93;;;;;;;21.40;100.00;96928.66;5076281;28;20521;-42
2022/08/07 01:12:41;;;;;;;11.70;8.02;;;;;;;21.49;100.00;96925.59;5073862;28;20091;-42
2022/08/07 01:15:22;;;;;;;12.38;8.20;;;;;;;21.31;100.00;96923.44;5082117;28;20055;-43
2022/08/07 01:18:10;;;;;;;12.10;8.35;;;;;;;21.20;100.00;96923.22;5077000;28;20554;-42
2022/08/07 01:20:46;;;;;;;9.65;7.88;;;;;;;21.31;100.00;96915.41;5079561;28;20071;-40
2022/08/07 01:23:29;;;;;;;10.60;7.75;;;;;;;21.29;100.00;96919.31;5078659;28;20435;-45
2022/08/07 01:26:07;;;;;;;13.82;8.13;;;;;;;21.10;100.00;96912.84;5080639;28;20607;-44
2022/08/07 01:28:40;;;;;;;12.07;7.70;;;;;;;21.19;100.00;96913.47;5084104;28;20068;-44
2022/08/07 01:31:14;;;;;;;12.52;8.55;;;;;;;21.04;100.00;96913.63;5077838;28;20176;-44
2022/08/07 01:33:45;;;;;;;9.25;7.45;;;;;;;21.28;100.00;96920.34;5086686;28;20052;-43
2022/08/07 01:36:24;;;;;;;8.80;7.40;;;;;;;21.16;100.00;96921.94;5082967;28;20075;-43
2022/08/07 01:39:03;;;;;;;8.65;7.75;;;;;;;21.05;100.00;96913.44;5081987;28;20086;-45
2022/08/07 01:41:38;;;;;;;8.57;7.68;;;;;;;20.89;100.00;96921.81;5080062;28;20510;-44
2022/08/07 01:44:26;;;;;;;11.00;7.05;;;;;;;20.89;100.00;96920.97;5079516;28;20079;-43
2022/08/07 01:46:54;;;;;;;9.20;7.05;;;;;;;20.99;100.00;96914.25;5078714;28;20087;-49
2022/08/07 01:49:23;;;;;;;9.60;7.43;;;;;;;20.80;100.00;96913.09;5080189;28;20088;-42
2022/08/07 01:51:53;;;;;;;10.65;8.77;;;;;;;20.80;100.00;96920.31;5084515;28;20083;-48
2022/08/07 01:54:35;;;;;;;13.13;8.20;;;;;;;20.54;100.00;96908.44;5079587;28;20083;-46
2022/08/07 01:57:07;;;;;;;10.45;8.02;;;;;;;20.66;100.00;96911.38;5078632;28;20084;-51
2022/08/07 01:59:52;;;;;;;11.10;7.88;;;;;;;20.45;100.00;96906.88;5081332;28;20080;-47
2022/08/07 02:02:26;;;;;;;9.50;8.10;;;;;;;20.47;100.00;96904.00;5080308;28;20541;-42
2022/08/07 02:05:17;;;;;;;11.48;8.18;;;;;;;20.46;100.00;96903.16;5079724;28;20087;-46
2022/08/07 02:08:09;;;;;;;10.88;7.85;;;;;;;20.32;100.00;96904.09;5084482;28;20091;-47
2022/08/07 02:10:51;;;;;;;8.50;7.55;;;;;;;20.45;100.00;96900.69;5080185;28;20114;-44
2022/08/07 02:13:24;;;;;;;9.95;8.00;;;;;;;20.25;100.00;96895.19;5082843;28;20078;-44
2022/08/07 02:16:13;;;;;;;10.45;8.20;;;;;;;20.23;100.00;96892.69;5078356;28;20079;-45
2022/08/07 02:18:43;;;;;;;10.18;7.90;;;;;;;20.23;100.00;96890.03;5083977;28;20102;-44
2022/08/07 02:21:15;;;;;;;8.52;7.60;;;;;;;20.02;100.00;96898.09;5075040;28;20612;-44
2022/08/07 02:23:44;;;;;;;9.35;8.05;;;;;;;20.04;100.00;96896.06;5082109;28;20080;-43
2022/08/07 02:26:15;;;;;;;9.18;7.93;;;;;;;19.99;100.00;96890.44;5078174;28;20076;-49
2022/08/07 02:29:02;;;;;;;10.00;8.02;;;;;;;19.88;100.00;96887.28;5079390;28;20099;-47
2022/08/07 02:31:31;;;;;;;9.50;7.82;;;;;;;19.72;100.00;96889.38;5082497;28;20079;-49
2022/08/07 02:34:00;;;;;;;8.88;7.43;;;;;;;19.98;100.00;96884.28;5081611;28;20070;-45
2022/08/07 02:36:38;;;;;;;8.23;7.43;;;;;;;19.57;100.00;96879.53;5082954;28;20763;-45
2022/08/07 02:39:08;;;;;;;8.73;7.55;;;;;;;19.76;100.00;96879.97;5078762;28;20083;-49
2022/08/07 02:41:58;;;;;;;10.77;7.43;;;;;;;19.74;100.00;96868.63;5078907;28;20069;-45
2022/08/07 02:44:27;;;;;;;8.60;7.50;;;;;;;19.58;100.00;96867.84;5080940;28;20075;-46
2022/08/07 02:47:03;;;;;;;8.77;7.68;;;;;;;19.51;100.00;96874.97;5083154;28;20090;-47
2022/08/07 02:49:32;;;;;;;8.82;7.50;;;;;;;19.44;100.00;96877.59;5085116;28;20086;-44
2022/08/07 02:52:30;;;;;;;12.35;8.02;;;;;;;19.52;100.00;96867.78;5078518;28;20079;-47
2022/08/07 02:55:03;;;;;;;9.63;7.78;;;;;;;19.59;100.00;96876.69;5083409;28;20556;-45
2022/08/07 02:57:45;;;;;;;10.00;7.95;;;;;;;19.57;100.00;96873.38;5080851;28;20084;-48
2022/08/07 03:00:15;;;;;;;9.18;7.88;;;;;;;19.76;100.00;96875.44;5082184;28;20079;-50
2022/08/07 03:02:47;;;;;;;8.35;7.45;;;;;;;19.44;100.00;96879.41;5079431;28;20091;-47
2022/08/07 03:05:23;;;;;;;10.85;8.25;;;;;;;19.42;100.00;96886.81;5079150;28;20076;-48
2022/08/07 03:07:53;;;;;;;12.27;8.35;;;;;;;19.64;100.00;96876.97;5083421;28;20138;-49
2022/08/07 03:10:37;;;;;;;10.10;8.32;;;;;;;19.37;100.00;96889.22;5079870;28;20087;-44
2022/08/07 03:13:16;;;;;;;12.55;8.93;;;;;;;19.32;100.00;96880.94;5080891;28;20071;-48
2022/08/07 03:15:47;;;;;;;10.40;8.80;;;;;;;19.28;100.00;96879.66;5084312;28;20082;-46
2022/08/07 03:18:25;;;;;;;10.73;9.32;;;;;;;19.27;100.00;96875.31;5079421;28;20072;-47
2022/08/07 03:21:04;;;;;;;10.30;8.70;;;;;;;19.14;100.00;96881.34;5079374;28;20064;-44
2022/08/07 03:23:39;;;;;;;13.68;9.30;;;;;;;19.37;100.00;96878.50;5079130;28;20080;-46
2022/08/07 03:26:30;;;;;;;15.43;9.75;;;;;;;19.23;100.00;96882.06;5079603;28;20087;-45
2022/08/07 03:29:01;;;;;;;10.48;8.95;;;;;;;19.62;100.00;96876.31;5079063;28;20067;-46
2022/08/07 03:31:30;;;;;;;11.77;9.23;;;;;;;19.50;100.00;96881.31;5084494;28;20066;-44
2022/08/07 03:34:12;;;;;;;10.18;9.02;;;;;;;19.54;100.00;96873.75;5078118;28;20068;-48
2022/08/07 03:36:51;;;;;;;10.20;9.10;;;;;;;19.38;100.00;96883.69;5082951;28;20056;-43
2022/08/07 03:39:21;;;;;;;10.27;8.50;;;;;;;19.45;100.00;96881.91;5076232;28;20829;-44
2022/08/07 03:42:09;;;;;;;10.88;8.70;;;;;;;19.72;100.00;96881.34;5076754;28;20491;-47
2022/08/07 03:44:41;;;;;;;9.23;7.22;;;;;;;19.34;100.00;96884.22;5082944;28;20080;-44
2022/08/07 03:47:14;;;;;;;9.52;7.03;;;;;;;19.30;100.00;96893.66;5083734;28;20685;-46
2022/08/07 03:49:45;;;;;;;8.23;7.07;;;;;;;19.18;100.00;96883.47;5082060;28;20084;-44
2022/08/07 03:52:21;;;;;;;7.65;6.85;;;;;;;19.38;100.00;96886.38;5080288;28;20071;-46
2022/08/07 03:54:54;;;;;;;7.63;5.72;;;;;;;19.08;100.00;96879.44;5082561;28;21669;-45
2022/08/07 03:57:35;;;;;;;7.70;5.70;;;;;;;19.08;100.00;96879.44;5076203;28;20087;-48
2022/08/07 04:00:25;;;;;;;6.32;5.40;;;;;;;18.97;100.00;96876.22;5075249;28;20820;-45
2022/08/07 04:02:58;;;;;;;6.00;5.40;;;;;;;19.33;100.00;96867.34;5080731;28;20079;-43
2022/08/07 04:05:32;;;;;;;8.48;5.45;;;;;;;19.01;100.00;96871.34;5079271;28;20087;-49
2022/08/07 04:08:11;;;;;;;6.32;5.18;;;;;;;18.89;100.00;96872.81;5075154;28;20087;-47
2022/08/07 04:10:39;;;;;;;6.93;4.80;;;;;;;19.06;100.00;96876.09;5080522;28;20604;-44
2022/08/07 04:13:11;;;;;;;6.80;4.50;;;;;;;18.93;100.00;96866.09;5076588;28;20072;-45
2022/08/07 04:15:44;;;;;;;5.60;4.30;;;;;;;19.35;100.00;96867.19;5081650;28;20487;-51
2022/08/07 04:18:16;;;;;;;6.07;4.18;;;;;;;19.04;100.00;96870.97;5077808;28;20086;-44
2022/08/07 04:21:05;;;;;;;5.80;4.13;;;;;;;19.26;100.00;96862.97;5082155;28;20072;-43
2022/08/07 04:23:35;;;;;;;5.60;3.78;;;;;;;19.30;100.00;96872.25;5074517;28;20107;-50
2022/08/07 04:26:23;;;;;;;4.45;3.60;;;;;;;19.16;100.00;96860.59;5077922;28;20092;-45
2022/08/07 04:28:55;;;;;;;6.57;3.60;;;;;;;19.13;100.00;96877.88;5080468;28;20475;-46
2022/08/07 04:31:27;;;;;;;4.80;3.25;;;;;;;18.94;100.00;96865.91;5081923;28;20078;-42
2022/08/07 04:34:15;;;;;;;3.88;2.80;;;;;;;19.39;100.00;96871.13;5078081;28;20075;-48
2022/08/07 04:36:54;;;;;;;3.00;2.70;;;;;;;19.36;100.00;96871.50;5079653;28;20083;-47
2022/08/07 04:39:23;;;;;;;4.05;2.50;;;;;;;19.41;100.00;96863.75;5082374;28;20452;-49
2022/08/07 04:41:53;;;;;;;4.28;2.78;;;;;;;19.43;100.00;96875.09;5081779;28;20076;-50
2022/08/07 04:44:22;;;;;;;3.50;2.72;;;;;;;19.73;100.00;96870.47;5079259;28;20533;-44
2022/08/07 04:46:58;;;;;;;3.47;2.80;;;;;;;19.23;100.00;96874.03;5079508;28;20078;-48
2022/08/07 04:49:42;;;;;;;2.72;2.40;;;;;;;19.71;100.00;96869.00;5082395;28;20076;-51
2022/08/07 04:52:32;;;;;;;3.30;2.80;;;;;;;19.81;100.00;96870.31;5076553;28;20438;-48
2022/08/07 04:55:05;;;;;;;4.43;2.60;;;;;;;19.89;100.00;96866.72;5078364;28;20080;-45
2022/08/07 04:57:47;;;;;;;3.85;2.30;;;;;;;20.44;100.00;96866.88;5078373;28;20040;-43
2022/08/07 05:00:41;;;;;;;2.72;1.98;;;;;;;20.08;100.00;96862.53;5080158;28;20075;-44
2022/08/07 05:03:17;;;;;;;8.43;2.30;;;;;;;19.42;100.00;96876.94;5077483;28;20079;-44
2022/08/07 05:06:08;;;;;;;2.70;1.85;;;;;;;19.90;100.00;96869.19;5079501;28;20048;-43
2022/08/07 05:08:50;;;;;;;2.65;2.45;;;;;;;19.83;100.00;96870.97;5077097;28;20095;-44
2022/08/07 05:11:33;;;;;;;3.28;2.30;;;;;;;20.46;100.00;96862.16;5076200;28;20048;-45
2022/08/07 05:14:27;;;;;;;3.25;2.38;;;;;;;21.08;100.00;96867.44;5082399;28;20083;-49
2022/08/07 05:17:19;;;;;;;3.97;2.55;;;;;;;21.60;100.00;96856.25;5074455;28;20088;-46
2022/08/07 05:20:10;;;;;;;4.68;3.30;;;;;;;21.99;100.00;96858.16;5083147;28;20083;-48
2022/08/07 05:22:41;;;;;;;4.20;2.70;;;;;;;21.97;100.00;96869.09;5077467;28;20068;-49
2022/08/07 05:25:11;;;;;;;4.15;2.50;;;;;;;22.18;100.00;96861.88;5083632;28;20079;-47
2022/08/07 05:28:00;;;;;;;7.13;2.60;;;;;;;21.64;100.00;96865.53;5078645;28;20613;-44
2022/08/07 05:30:44;;;;;;;2.60;2.40;;;;;;;21.32;100.00;96866.06;5078006;28;20121;-42
2022/08/07 05:33:15;;;;;;;3.88;2.30;;;;;;;21.41;100.00;96864.06;5081178;28;20083;-44
2022/08/07 05:35:49;;;;;;;2.05;1.88;;;;;;;21.32;100.00;96867.94;5084520;28;20095;-44
2022/08/07 05:38:20;;;;;;;3.05;1.90;;;;;;;21.35;100.00;96870.25;5083192;28;20094;-43
2022/08/07 05:41:09;;;;;;;4.78;2.10;;;;;;;20.92;100.00;96866.94;5080359;28;20084;-47
2022/08/07 05:43:44;;;;;;;2.75;1.70;;;;;;;20.78;100.00;96871.44;5080020;28;22371;-43
2022/08/07 05:46:34;;;;;;;2.13;1.75;;;;;;;21.20;100.00;96878.44;5078176;28;20079;-42
2022/08/07 05:49:05;;;;;;;2.90;1.70;;;;;;;20.93;100.00;96876.66;5082527;28;20068;-47
2022/08/07 05:51:41;;;;;;;3.42;1.80;;;;;;;20.98;100.00;96874.22;5080236;28;20487;-43
2022/08/07 05:54:13;;;;;;;2.35;1.70;;;;;;;20.82;100.00;96876.22;5079377;28;20095;-46
2022/08/07 05:56:59;;;;;;;3.53;2.05;;;;;;;20.97;100.00;96876.06;5081833;28;20080;-47
2022/08/07 05:59:27;;;;;;;3.42;1.77;;;;;;;21.07;100.00;96873.84;5079762;28;20083;-45
2022/08/07 06:02:07;;;;;;;2.90;1.63;;;;;;;21.37;100.00;96880.75;5080128;28;20075;-45
2022/08/07 06:04:37;;;;;;;;;;;;;;;21.20;100.00;96873.06;5076789;28;20075;-44
2022/08/07 06:07:07;;;;;;;2.33;1.65;;;;;;;21.08;100.00;96880.84;5079971;28;19978;-47
2022/08/07 06:09:50;;;;;;;3.35;2.00;;;;;;;21.01;100.00;96873.81;5081422;28;20693;-46
2022/08/07 06:12:34;;;;;;;2.97;2.10;;;;;;;20.92;100.00;96880.34;5080637;28;20084;-44
2022/08/07 06:15:02;;;;;;;4.28;2.03;;;;;;;21.17;100.00;96876.16;5087307;28;20475;-45
2022/08/07 06:17:33;;;;;;;2.10;1.85;;;;;;;21.19;100.00;96876.75;5080461;28;20091;-45
2022/08/07 06:20:08;;;;;;;2.70;1.85;;;;;;;21.88;100.00;96867.63;5086085;28;20134;-44
2022/08/07 06:22:58;;;;;;;5.25;1.85;;;;;;;21.90;100.00;96876.31;5082072;28;20083;-43
2022/08/07 06:25:46;;;;;;;2.38;2.05;;;;;;;21.72;100.00;96873.41;5082736;28;20522;-47
2022/08/07 06:28:24;;;;;;;2.13;1.88;;;;;;;21.79;100.00;96874.25;5082244;28;20075;-43
2022/08/07 06:30:55;;;;;;;2.78;1.92;;;;;;;21.67;100.00;96868.66;5081059;28;20147;-46
2022/08/07 06:33:25;;;;;;;2.15;1.85;;;;;;;21.41;100.00;96874.81;5082772;28;20480;-49
2022/08/07 06:35:54;;;;;;;3.20;2.17;;;;;;;21.30;100.00;96875.34;5081850;28;20083;-45
2022/08/07 06:38:43;;;;;;;3.58;2.15;;;;;;;22.18;100.00;96872.63;5081640;28;20080;-45
2022/08/07 06:41:33;;;;;;;;;;;;;;;22.04;100.00;96880.66;5084696;28;20079;-45
2022/08/07 06:44:22;;;;;;;3.07;2.00;;;;;;;21.96;100.00;96875.50;5083087;28;20343;-46
2022/08/07 06:46:51;;;;;;;2.10;1.83;;;;;;;21.91;100.00;96872.59;5082485;28;20502;-45
2022/08/07 06:49:21;;;;;;;3.00;2.10;;;;;;;21.87;100.00;96884.78;5075053;28;20075;-45
2022/08/07 06:51:49;;;;;;;2.45;1.70;;;;;;;21.99;100.00;96879.63;5083640;28;20072;-44
2022/08/07 06:54:20;;;;;;;3.45;1.92;;;;;;;22.19;100.00;96872.41;5080479;28;20452;-46
2022/08/07 06:57:09;;;;;;;4.75;2.30;;;;;;;22.18;100.00;96873.44;5082526;28;20138;-48
2022/08/07 06:59:41;;;;;;;4.28;2.40;;;;;;;22.55;100.00;96876.50;5080317;28;20072;-43
2022/08/07 07:02:30;;;;;;;2.20;2.00;;;;;;;22.20;100.00;96873.25;5079110;28;20076;-44
2022/08/07 07:05:20;;;;;;;2.35;2.10;;;;;;;22.07;100.00;96867.84;5083936;28;20517;-45
2022/08/07 07:08:11;;;;;;;3.60;2.22;;;;;;;22.81;100.00;96867.53;5077410;28;20083;-45
2022/08/07 07:10:54;;;;;;;3.35;2.10;;;;;;;22.47;100.00;96876.72;5086202;28;20083;-44
2022/08/07 07:13:31;;;;;;;3.95;2.47;;;;;;;22.46;100.00;96875.88;5078327;28;20083;-46
2022/08/07 07:16:22;;;;;;;3.53;2.50;;;;;;;22.37;100.00;96874.47;5086667;28;20518;-48
2022/08/07 07:18:59;;;;;;;2.58;2.25;;;;;;;22.26;100.00;96875.94;5083307;28;20482;-46
2022/08/07 07:21:41;;;;;;;3.67;2.40;;;;;;;22.89;100.00;96878.06;5080294;28;20075;-45
2022/08/07 07:24:29;;;;;;;3.20;2.15;;;;;;;23.33;100.00;96881.84;5078043;28;20082;-45
2022/08/07 07:27:03;;;;;;;6.05;2.60;;;;;;;23.48;100.00;96872.66;5080382;28;20075;-47
2022/08/07 07:29:37;;;;;;;5.90;2.88;;;;;;;22.79;100.00;96874.19;5076314;28;20072;-44
2022/08/07 07:32:25;;;;;;;4.60;2.60;;;;;;;23.22;100.00;96877.13;5077371;28;20133;-42
2022/08/07 07:34:56;;;;;;;3.72;2.47;;;;;;;22.28;100.00;96879.22;5081174;28;20095;-47
2022/08/07 07:37:24;;;;;;;;;;;;;;;23.22;100.00;96871.75;5088241;28;20071;-44
2022/08/07 07:40:15;;;;;;;2.60;2.40;;;;;;;23.57;100.00;96869.50;5082087;28;19997;-49
2022/08/07 07:42:46;;;;;;;3.25;2.58;;;;;;;23.10;100.00;96868.09;5086635;28;20652;-47
2022/08/07 07:45:25;;;;;;;3.83;2.67;;;;;;;23.96;100.00;96864.09;5082210;28;20150;-48
2022/08/07 07:48:16;;;;;;;3.75;2.60;;;;;;;23.59;100.00;96863.88;5084818;28;20489;-47
2022/08/07 07:51:04;;;;;;;7.15;2.65;;;;;;;23.90;100.00;96858.50;5082257;28;20522;-40
2022/08/07 07:53:39;;;;;;;3.22;2.50;;;;;;;23.36;100.00;96854.47;5076561;28;20087;-41
2022/08/07 07:56:23;;;;;;;3.53;2.47;;;;;;;23.72;100.00;96849.56;5084530;28;20110;-46
2022/08/07 07:59:00;;;;;;;3.22;2.55;;;;;;;23.82;100.00;96855.28;5077482;28;20052;-43
2022/08/07 08:01:30;;;;;;;3.28;2.53;;;;;;;24.02;100.00;96855.94;5079030;28;20647;-42
2022/08/07 08:04:19;;;;;;;2.63;2.40;;;;;;;23.97;100.00;96855.78;5083273;28;20100;-46
2022/08/07 08:06:53;;;;;;;3.38;2.50;;;;;;;24.21;100.00;96850.59;5082880;28;20526;-51
2022/08/07 08:09:25;;;;;;;3.40;2.20;;;;;;;23.59;100.00;96850.44;5075331;28;20068;-55
2022/08/07 08:11:57;;;;;;;2.22;2.00;;;;;;;23.76;100.00;96848.06;5079338;28;20098;-51
2022/08/07 08:14:33;;;;;;;4.68;2.15;;;;;;;24.49;100.00;96853.66;5077516;28;20076;-47
2022/08/07 08:17:05;;;;;;;5.70;2.22;;;;;;;24.50;90.57;96835.59;5082250;28;20083;-46
2022/08/07 08:19:57;;;;;;;4.20;2.17;;;;;;;24.03;93.55;96837.91;5080660;28;20123;-41
2022/08/07 08:28:26;;;;;;;2.67;2.00;;;;;;;24.26;88.55;96843.50;5087050;28;20127;-45
2022/08/07 08:31:09;;;;;;;4.22;2.42;;;;;;;24.39;88.54;96843.34;5083718;28;20094;-40
2022/08/07 08:33:44;;;;;;;2.22;1.90;;;;;;;23.97;91.74;96854.94;5081430;28;20068;-50
2022/08/07 08:36:19;;;;;;;3.63;1.98;;;;;;;24.03;84.81;96846.00;5084797;28;20083;-43
2022/08/07 08:38:58;;;;;;;3.25;1.90;;;;;;;24.22;84.59;96838.75;5080090;28;20095;-44
2022/08/07 08:41:34;;;;;;;3.15;1.90;;;;;;;24.41;86.55;96842.34;5085684;28;20619;-42
2022/08/07 08:44:27;;;;;;;3.95;2.10;;;;;;;24.73;82.65;96845.75;5085156;28;20071;-40
2022/08/07 08:47:05;;;;;;;2.80;1.95;;;;;;;24.04;85.86;96832.28;5080769;28;20088;-41
2022/08/07 08:49:42;;;;;;;2.38;1.88;;;;;;;24.19;87.02;96841.91;5084155;28;20082;-42
2022/08/07 08:52:33;;;;;;;1.85;1.75;;;;;;;25.09;82.34;96845.72;5082037;28;20467;-40
2022/08/07 08:55:15;;;;;;;2.50;2.00;;;;;;;24.53;81.69;96837.84;5069799;28;20080;-47
2022/08/07 08:58:06;;;;;;;2.60;1.92;;;;;;;24.62;85.28;96840.03;5079840;28;20510;-40
2022/08/07 09:00:43;;;;;;;2.00;1.65;;;;;;;24.77;79.55;96839.66;5083699;28;20095;-44
2022/08/07 09:03:26;;;;;;;4.93;1.85;;;;;;;24.15;73.60;96845.03;5082834;28;20094;-42
2022/08/07 09:06:21;;;;;;;3.92;2.10;;;;;;;25.09;72.41;96839.50;5081709;28;20079;-43
2022/08/07 09:08:57;;;;;;;2.33;1.70;;;;;;;25.80;68.22;96840.63;5080763;28;20080;-45
2022/08/07 09:11:34;;;;;;;3.30;1.90;;;;;;;25.52;62.47;96841.22;5080779;28;20083;-49
2022/08/07 09:14:29;;;;;;;3.25;1.83;;;;;;;25.15;61.85;96843.19;5081176;28;20074;-43
2022/08/07 09:17:03;;;;;;;2.42;1.80;;;;;;;25.98;63.50;96839.69;5082446;28;20518;-41
2022/08/07 09:19:47;;;;;;;2.58;1.75;;;;;;;25.33;61.52;96837.75;5088748;28;20083;-40
2022/08/07 09:22:34;;;;;;;3.25;1.70;;;;;;;25.06;63.19;96832.69;5085366;28;20083;-43
2022/08/07 09:25:25;;;;;;;3.08;2.10;;;;;;;24.52;65.47;96844.31;5078635;28;20059;-46
2022/08/07 09:28:00;;;;;;;3.10;2.28;;;;;;;24.82;68.22;96836.31;5081110;28;20481;-40
2022/08/07 09:30:44;;;;;;;2.22;1.80;;;;;;;25.02;65.21;96838.78;5080521;28;20569;-40
2022/08/07 09:33:31;;;;;;;2.85;2.30;;;;;;;24.57;68.13;96836.34;5083114;28;20075;-45
2022/08/07 09:36:26;;;;;;;3.40;2.08;;;;;;;25.57;64.75;96833.28;5083684;28;20080;-43
2022/08/07 09:39:12;;;;;;;2.90;1.75;;;;;;;25.51;66.32;96823.38;5079605;28;20072;-48
2022/08/07 09:42:04;;;;;;;2.53;1.70;;;;;;;25.27;62.09;96825.19;5080353;28;20087;-48
2022/08/07 09:44:48;;;;;;;4.97;2.10;;;;;;;25.52;61.88;96825.00;5080520;28;20091;-45
2022/08/07 09:47:38;;;;;;;;;;;;;;;24.76;64.38;96823.72;5086017;28;20050;-46
2022/08/07 09:50:36;;;;;;;3.28;2.05;;;;;;;25.63;58.43;96813.41;5087332;28;19963;-42
2022/08/07 09:53:11;;;;;;;2.00;1.55;;;;;;;25.16;58.69;96812.47;5083804;28;20083;-45
2022/08/07 09:55:56;;;;;;;3.70;1.73;;;;;;;25.61;58.54;96810.13;5087129;28;20090;-43
2022/08/07 09:58:57;;;;;;;3.58;1.90;;;;;;;25.92;56.32;96813.63;5081340;28;20080;-43
2022/08/07 10:01:41;;;;;;;1.90;1.52;;;;;;;25.78;53.84;96813.00;5061881;28;20435;-46
2022/08/07 10:04:31;;;;;;;2.38;1.50;;;;;;;25.67;52.88;96806.53;5080096;28;20083;-49
2022/08/07 10:07:26;;;;;;;2.20;1.45;;;;;;;25.50;55.02;96817.16;5088471;28;20075;-49
2022/08/07 10:10:22;;;;;;;2.05;1.60;;;;;;;25.45;54.98;96814.31;5083925;28;20471;-42
2022/08/07 10:13:15;;;;;;;1.75;1.50;;;;;;;25.88;53.07;96809.72;5082460;28;20068;-46
2022/08/07 10:16:11;;;;;;;2.55;1.52;;;;;;;26.43;53.53;96806.72;5082646;28;20075;-47
2022/08/07 10:19:04;;;;;;;2.45;1.52;;;;;;;26.21;51.60;96804.56;5086110;28;20095;-47
2022/08/07 10:21:52;;;;;;;2.08;1.35;;;;;;;26.70;49.38;96802.47;5083833;28;20076;-46
2022/08/07 10:24:50;;;;;;;1.80;1.25;;;;;;;26.58;47.96;96793.53;5082633;28;20090;-47
2022/08/07 10:27:40;;;;;;;2.15;1.40;;;;;;;26.59;48.05;96797.88;5085995;28;20080;-46
2022/08/07 10:30:17;;;;;;;1.65;1.40;;;;;;;27.37;47.58;96793.75;5085825;28;20084;-42
2022/08/07 10:33:00;;;;;;;4.38;1.38;;;;;;;26.91;47.08;96789.31;5085972;28;20036;-42
2022/08/07 10:35:31;;;;;;;2.38;1.40;;;;;;;27.10;47.28;96800.81;5085361;28;20826;-40
2022/08/07 10:38:33;;;;;;;1.63;1.30;;;;;;;26.62;47.63;96786.56;5082580;28;20094;-44
2022/08/07 10:41:20;;;;;;;3.53;1.40;;;;;;;26.91;46.85;96789.31;5082660;28;20091;-50
2022/08/07 10:44:20;;;;;;;1.92;1.30;;;;;;;26.96;46.63;96779.41;5080828;28;20076;-41
2022/08/07 10:47:17;;;;;;;3.45;1.52;;;;;;;26.97;47.63;96780.25;5087624;28;20091;-42
2022/08/07 10:50:00;;;;;;;3.65;1.52;;;;;;;27.49;46.71;96766.59;5082216;28;20537;-41
2022/08/07 10:52:33;;;;;;;4.25;1.58;;;;;;;27.23;46.03;96781.59;5088085;28;20811;-42
2022/08/07 10:55:10;;;;;;;2.17;1.40;;;;;;;27.81;46.85;96768.81;5086262;28;20083;-44
2022/08/07 10:58:04;;;;;;;6.13;1.63;;;;;;;27.43;47.73;96767.59;5087111;28;20106;-45
2022/08/07 11:00:46;;;;;;;2.47;1.58;;;;;;;27.32;45.51;96769.28;5083629;28;20067;-47
2022/08/07 11:03:25;;;;;;;1.75;1.40;;;;;;;27.62;45.80;96770.88;5084655;28;21479;-42
2022/08/07 11:06:11;;;;;;;2.08;1.50;;;;;;;26.94;45.97;96764.47;5077954;28;20091;-45
2022/08/07 11:08:50;;;;;;;2.00;1.67;;;;;;;27.40;45.85;96763.47;5081595;28;21756;-47
2022/08/07 11:11:24;;;;;;;2.90;1.50;;;;;;;27.04;46.07;96764.66;5081549;28;20084;-42
2022/08/07 11:13:57;;;;;;;3.95;1.40;;;;;;;27.06;45.93;96765.25;5083062;28;20119;-51
2022/08/07 11:16:50;;;;;;;2.25;1.55;;;;;;;27.01;45.64;96770.56;5082837;28;20090;-47
2022/08/07 11:19:31;;;;;;;1.98;1.55;;;;;;;27.08;45.48;96765.84;5085422;28;20099;-41
2022/08/07 11:22:07;;;;;;;2.80;1.42;;;;;;;26.85;44.91;96757.81;5080891;28;20075;-43
2022/08/07 11:25:00;;;;;;;2.55;1.60;;;;;;;27.38;44.06;96757.47;5082629;28;20087;-42
2022/08/07 11:27:40;;;;;;;3.33;1.90;;;;;;;28.11;43.71;96750.28;5080132;28;20103;-46
2022/08/07 11:30:34;;;;;;;2.08;1.58;;;;;;;27.20;43.98;96747.69;5082858;28;20617;-45
2022/08/07 11:33:18;;;;;;;2.92;1.60;;;;;;;27.43;44.09;96748.63;5083452;28;20544;-46
2022/08/07 11:36:16;;;;;;;1.90;1.40;;;;;;;28.10;44.25;96745.91;5083267;28;20855;-45
2022/08/07 11:39:05;;;;;;;2.03;1.60;;;;;;;28.63;40.45;96752.66;5085639;28;20075;-46
2022/08/07 11:41:40;;;;;;;1.95;1.48;;;;;;;27.89;42.38;96742.09;5080267;28;20478;-42
2022/08/07 11:44:36;;;;;;;1.75;1.38;;;;;;;28.14;41.21;96744.34;5070815;28;20084;-42
2022/08/07 11:47:12;;;;;;;1.85;1.50;;;;;;;27.69;42.48;96744.44;5079137;28;20099;-47
2022/08/07 11:50:00;;;;;;;1.90;1.30;;;;;;;28.03;42.17;96737.13;5077052;28;20084;-45
2022/08/07 11:53:00;;;;;;;3.17;1.42;;;;;;;28.64;44.60;96729.03;5086977;28;20084;-43
2022/08/07 11:55:48;;;;;;;2.83;1.20;;;;;;;28.44;41.81;96737.75;5083291;28;20076;-44
2022/08/07 11:58:44;;;;;;;1.92;1.38;;;;;;;27.88;42.63;96729.59;5085658;28;20531;-45
2022/08/07 12:01:33;;;;;;;2.53;1.40;;;;;;;28.13;41.52;96726.44;5070045;28;20084;-43
2022/08/07 12:04:34;;;;;;;2.15;1.58;;;;;;;27.78;44.17;96728.63;5081581;28;20076;-42
2022/08/07 12:07:10;;;;;;;2.13;1.27;;;;;;;27.69;43.40;96729.00;5089551;28;20135;-44
2022/08/07 12:09:57;;;;;;;3.10;1.95;;;;;;;28.01;42.71;96727.59;5077732;28;20090;-46
2022/08/07 12:12:36;;;;;;;1.48;1.20;;;;;;;28.68;41.58;96726.63;5079966;28;20075;-41
2022/08/07 12:15:08;;;;;;;1.95;1.40;;;;;;;27.92;42.95;96722.63;5075933;28;20090;-49
2022/08/07 12:18:01;;;;;;;1.40;1.27;;;;;;;27.79;44.52;96722.97;5069880;28;20084;-44
2022/08/07 12:20:38;;;;;;;2.25;1.50;;;;;;;27.77;42.77;96716.97;5071788;28;20076;-46
2022/08/07 12:23:22;;;;;;;1.60;1.30;;;;;;;28.31;43.48;96708.22;5079840;28;20538;-43
2022/08/07 12:26:17;;;;;;;1.83;1.30;;;;;;;28.32;41.81;96710.72;5069800;28;20182;-41
2022/08/07 12:28:52;;;;;;;;;;;;;;;28.36;42.08;96714.56;5077027;28;20094;-44
2022/08/07 12:31:29;;;;;;;1.70;1.42;;;;;;;27.59;42.27;96709.06;5079273;28;19952;-43